Terminal Aerodrome Forecast
Issued by NWS

Home | Current Version | Previous Version | Graphics & Text | Print | Product List | Glossary On
Versions: 1 2 3 4 5 6 7 8 9 10 11 12 13 14 15 16 17 18 19 20 21 22 23 24 25 26 27 28 29 30
000
FTUS43 KLOT 212225 AAB
TAFDPA
TAF AMD
KDPA 212225Z 2122/2218 22010KT P6SM FEW030
     FM220000 18005KT 6SM BR FEW010 SCT250
     FM220500 VRB03KT 3SM BR BKN007 BKN025
     FM220800 06004KT 3/4SM BR OVC004
     FM221600 03008KT 1SM BR OVC005=

USA.gov is the U.S. government's official web portal to all federal, state and local government web resources and services.